createdAt,value
2024-04-24T00:00:58.532Z,13.37
2024-04-24T00:02:30.276Z,13.39
2024-04-24T00:04:01.978Z,13.40
2024-04-24T00:05:33.721Z,13.39
2024-04-24T00:07:05.440Z,13.40
2024-04-24T00:08:37.184Z,13.41
2024-04-24T00:10:08.964Z,13.45
2024-04-24T00:11:41.123Z,13.47
2024-04-24T00:13:13.317Z,13.47
2024-04-24T00:14:45.063Z,13.39
2024-04-24T00:16:16.738Z,13.35
2024-04-24T00:17:48.860Z,13.37
2024-04-24T00:19:20.750Z,13.39
2024-04-24T00:20:56.387Z,13.38
2024-04-24T00:22:28.062Z,13.40
2024-04-24T00:23:59.818Z,13.43
2024-04-24T00:25:31.573Z,13.48
2024-04-24T00:27:03.289Z,13.48
2024-04-24T00:28:34.961Z,13.47
2024-04-24T00:30:07.117Z,13.43
2024-04-24T00:31:39.278Z,13.42
2024-04-24T00:33:11.450Z,13.40
2024-04-24T00:34:43.369Z,13.34
2024-04-24T00:36:15.959Z,13.28
2024-04-24T00:37:47.710Z,13.26
2024-04-24T00:39:19.775Z,13.24
2024-04-24T00:40:51.843Z,13.23
2024-04-24T00:42:23.646Z,13.18
2024-04-24T00:43:55.449Z,13.14
2024-04-24T00:45:27.204Z,13.14
2024-04-24T00:46:59.189Z,13.12
2024-04-24T00:48:31.131Z,13.13
2024-04-24T00:50:03.137Z,13.13
2024-04-24T00:51:34.791Z,13.09
2024-04-24T00:53:06.719Z,13.04
2024-04-24T00:54:38.732Z,13.03
2024-04-24T00:56:11.388Z,13.02
2024-04-24T00:57:43.597Z,13.02
2024-04-24T00:59:15.355Z,13.03
2024-04-24T01:00:47.689Z,13.05
2024-04-24T01:02:19.465Z,13.05
2024-04-24T01:03:51.181Z,13.05
2024-04-24T01:05:23.330Z,13.03
2024-04-24T01:06:55.533Z,13.03
2024-04-24T01:08:27.230Z,12.99
2024-04-24T01:09:59.029Z,12.96
2024-04-24T01:11:32.589Z,12.94
2024-04-24T01:13:04.752Z,12.89
2024-04-24T01:14:36.781Z,12.88
2024-04-24T01:16:15.870Z,12.91
2024-04-24T01:17:50.957Z,12.94
2024-04-24T01:19:32.195Z,12.95
2024-04-24T01:21:04.394Z,12.96
2024-04-24T01:22:45.556Z,13.03
2024-04-24T01:24:18.738Z,13.10
2024-04-24T01:25:54.926Z,13.14
2024-04-24T01:27:27.159Z,13.18
2024-04-24T01:28:58.885Z,13.18
2024-04-24T01:30:31.042Z,13.20
2024-04-24T01:32:03.058Z,13.24
2024-04-24T01:33:34.884Z,13.23
2024-04-24T01:35:06.978Z,13.22
2024-04-24T01:36:38.849Z,13.14
2024-04-24T01:38:10.542Z,13.05
2024-04-24T01:39:42.277Z,12.99
2024-04-24T01:41:14.118Z,12.96
2024-04-24T01:42:45.850Z,12.95
2024-04-24T01:44:17.606Z,12.93
2024-04-24T01:45:49.356Z,12.90
2024-04-24T01:47:21.183Z,12.92
2024-04-24T01:48:53.296Z,12.93
2024-04-24T01:50:25.178Z,12.90
2024-04-24T01:51:57.097Z,12.85
2024-04-24T01:53:29.191Z,12.79
2024-04-24T01:55:01.031Z,12.72
2024-04-24T01:56:32.809Z,12.68
2024-04-24T01:58:04.786Z,12.64
2024-04-24T01:59:36.623Z,12.56
2024-04-24T02:01:08.413Z,12.49
2024-04-24T02:02:40.158Z,12.49
2024-04-24T02:04:11.970Z,12.57
2024-04-24T02:05:44.155Z,12.61
2024-04-24T02:07:16.196Z,12.65
2024-04-24T02:08:47.952Z,12.70
2024-04-24T02:10:19.711Z,12.81
2024-04-24T02:11:59.438Z,12.88
2024-04-24T02:13:38.736Z,12.92
2024-04-24T02:15:10.528Z,12.98
2024-04-24T02:16:42.173Z,12.98
2024-04-24T02:18:14.096Z,12.99
2024-04-24T02:19:46.013Z,13.00
2024-04-24T02:21:17.896Z,13.01
2024-04-24T02:22:50.285Z,13.03
2024-04-24T02:24:41.884Z,13.06
2024-04-24T02:26:13.981Z,12.97
2024-04-24T02:27:45.946Z,12.89
2024-04-24T02:29:17.803Z,12.85
2024-04-24T02:30:49.896Z,12.83
2024-04-24T02:32:22.115Z,12.82
2024-04-24T02:33:53.988Z,12.88
2024-04-24T02:35:25.812Z,12.93
2024-04-24T02:36:58.923Z,12.90
2024-04-24T02:38:30.668Z,12.92
2024-04-24T02:40:02.426Z,12.93
2024-04-24T02:41:34.050Z,12.96
2024-04-24T02:43:05.797Z,12.94
2024-04-24T02:44:38.136Z,12.90
2024-04-24T02:46:09.871Z,12.88
2024-04-24T02:47:41.754Z,12.86
2024-04-24T02:49:13.576Z,12.81
2024-04-24T02:50:45.377Z,12.77
2024-04-24T02:52:17.111Z,12.70
2024-04-24T02:53:48.911Z,12.65
2024-04-24T02:55:20.705Z,12.64
2024-04-24T02:56:53.573Z,12.62
2024-04-24T02:58:25.522Z,12.61
2024-04-24T02:59:57.164Z,12.61
2024-04-24T03:01:28.846Z,12.60
2024-04-24T03:03:00.825Z,12.59
2024-04-24T03:04:32.657Z,12.58
2024-04-24T03:06:04.484Z,12.54
2024-04-24T03:07:37.696Z,12.47
2024-04-24T03:09:09.423Z,12.41
2024-04-24T03:10:41.249Z,12.39
2024-04-24T03:12:12.979Z,12.35
2024-04-24T03:13:44.634Z,12.32
2024-04-24T03:15:16.333Z,12.29
2024-04-24T03:16:48.201Z,12.30
2024-04-24T03:18:20.078Z,12.39
2024-04-24T03:19:51.839Z,12.43
2024-04-24T03:21:23.628Z,12.45
2024-04-24T03:22:55.356Z,12.47
2024-04-24T03:24:27.138Z,12.45
2024-04-24T03:25:58.894Z,12.44
2024-04-24T03:27:30.990Z,12.39
2024-04-24T03:29:02.892Z,12.38
2024-04-24T03:30:34.562Z,12.41
2024-04-24T03:32:06.243Z,12.44
2024-04-24T03:33:38.116Z,12.48
2024-04-24T03:35:09.889Z,12.47
2024-04-24T03:36:41.577Z,12.47
2024-04-24T03:38:13.715Z,12.47
2024-04-24T03:39:45.938Z,12.45
2024-04-24T03:41:17.648Z,12.45
2024-04-24T03:42:49.524Z,12.46
2024-04-24T03:44:21.278Z,12.50
2024-04-24T03:45:52.984Z,12.56
2024-04-24T03:47:24.786Z,12.62
2024-04-24T03:48:58.350Z,12.67
2024-04-24T03:50:30.332Z,12.75
2024-04-24T03:52:01.990Z,12.82
2024-04-24T03:53:33.817Z,12.87
2024-04-24T03:55:06.458Z,12.93
2024-04-24T03:56:38.079Z,12.98
2024-04-24T03:58:09.750Z,13.01
2024-04-24T03:59:41.461Z,13.04
2024-04-24T04:01:13.356Z,13.06
2024-04-24T04:02:45.176Z,13.06
2024-04-24T04:04:17.056Z,13.06
2024-04-24T04:05:49.219Z,13.13
2024-04-24T04:07:20.920Z,13.13
2024-04-24T04:08:52.695Z,13.10
2024-04-24T04:10:24.350Z,13.08
2024-04-24T04:11:56.075Z,13.06
2024-04-24T04:13:27.864Z,13.05
2024-04-24T04:15:01.889Z,13.05
2024-04-24T04:16:34.019Z,13.05
2024-04-24T04:18:06.515Z,13.06
2024-04-24T04:19:38.456Z,13.02
2024-04-24T04:21:10.305Z,13.02
2024-04-24T04:22:43.230Z,13.03
2024-04-24T04:24:15.118Z,13.05
2024-04-24T04:25:47.110Z,13.06
2024-04-24T04:27:18.824Z,13.06
2024-04-24T04:28:50.811Z,13.05
2024-04-24T04:30:23.040Z,13.06
2024-04-24T04:31:55.333Z,13.06
2024-04-24T04:33:27.308Z,13.03
2024-04-24T04:34:59.551Z,13.00
2024-04-24T04:36:31.342Z,13.00
2024-04-24T04:38:03.146Z,12.99
2024-04-24T04:39:34.770Z,13.00
2024-04-24T04:41:06.914Z,13.03
2024-04-24T04:42:38.667Z,13.05
2024-04-24T04:44:10.433Z,13.03
2024-04-24T04:45:42.213Z,13.08
2024-04-24T04:47:13.918Z,13.12
2024-04-24T04:48:45.731Z,13.10
2024-04-24T04:50:17.592Z,13.13
2024-04-24T04:51:49.386Z,13.15
2024-04-24T04:53:21.288Z,13.19
2024-04-24T04:54:53.152Z,13.23
2024-04-24T04:56:27.219Z,13.19
2024-04-24T04:58:04.575Z,13.19
2024-04-24T04:59:36.695Z,13.15
2024-04-24T05:01:09.873Z,13.10
2024-04-24T05:02:41.856Z,13.12
2024-04-24T05:04:13.728Z,13.14
2024-04-24T05:05:46.018Z,13.15
2024-04-24T05:07:17.700Z,13.12
2024-04-24T05:08:52.253Z,13.07
2024-04-24T05:10:25.553Z,13.02
2024-04-24T05:11:57.316Z,13.00
2024-04-24T05:13:28.998Z,12.98
2024-04-24T05:15:01.033Z,12.97
2024-04-24T05:16:33.226Z,13.00
2024-04-24T05:18:05.718Z,13.06
2024-04-24T05:19:38.090Z,13.11
2024-04-24T05:21:09.862Z,13.16
2024-04-24T05:22:48.481Z,13.18
2024-04-24T05:24:20.539Z,13.20
2024-04-24T05:25:56.768Z,13.20
2024-04-24T05:27:47.291Z,13.23
2024-04-24T05:29:19.189Z,13.26
2024-04-24T05:30:50.978Z,13.26
2024-04-24T05:32:22.824Z,13.23
2024-04-24T05:33:54.759Z,13.16
2024-04-24T05:35:26.691Z,13.14
2024-04-24T05:36:58.544Z,13.13
2024-04-24T05:38:30.417Z,13.17
2024-04-24T05:40:02.311Z,13.25
2024-04-24T05:41:34.100Z,13.30
2024-04-24T05:43:06.022Z,13.36
2024-04-24T05:44:37.776Z,13.38
2024-04-24T05:46:09.502Z,13.40
2024-04-24T05:47:41.343Z,13.39
2024-04-24T05:49:13.121Z,13.40
2024-04-24T05:50:45.163Z,13.45
2024-04-24T05:52:16.977Z,13.54
2024-04-24T05:53:48.833Z,13.64
2024-04-24T05:55:20.548Z,13.74
2024-04-24T05:56:52.266Z,13.84
2024-04-24T05:58:24.260Z,13.94
2024-04-24T05:59:55.988Z,14.01
2024-04-24T06:01:33.181Z,14.10
2024-04-24T06:03:05.490Z,14.17
2024-04-24T06:04:37.256Z,14.24
2024-04-24T06:06:09.316Z,14.33
2024-04-24T06:07:42.387Z,14.42
2024-04-24T06:09:17.210Z,14.51
2024-04-24T06:10:49.019Z,14.57
2024-04-24T06:12:20.840Z,14.62
2024-04-24T06:13:52.513Z,14.67
2024-04-24T06:15:24.439Z,14.74
2024-04-24T06:16:56.202Z,14.81
2024-04-24T06:18:27.978Z,14.83
2024-04-24T06:19:59.919Z,14.86
2024-04-24T06:21:31.665Z,14.78
2024-04-24T06:23:03.464Z,14.79
2024-04-24T06:24:35.174Z,14.72
2024-04-24T06:26:06.879Z,14.72
2024-04-24T06:27:39.726Z,14.80
2024-04-24T06:29:11.445Z,14.81
2024-04-24T06:30:43.464Z,14.81
2024-04-24T06:32:15.353Z,14.85
2024-04-24T06:33:47.350Z,14.86
2024-04-24T06:35:23.938Z,14.88
2024-04-24T06:36:57.721Z,14.92
2024-04-24T06:38:29.738Z,15.01
2024-04-24T06:40:01.558Z,15.19
2024-04-24T06:41:33.407Z,15.30
2024-04-24T06:43:05.631Z,15.41
2024-04-24T06:44:37.271Z,15.48
2024-04-24T06:46:08.988Z,15.63
2024-04-24T06:47:40.801Z,15.79
2024-04-24T06:49:12.437Z,15.93
2024-04-24T06:50:44.597Z,16.11
2024-04-24T06:52:16.270Z,16.23
2024-04-24T06:53:47.914Z,16.40
2024-04-24T06:55:22.619Z,16.52
2024-04-24T06:56:58.064Z,16.63
2024-04-24T06:58:33.167Z,16.70
2024-04-24T07:00:05.361Z,16.76
2024-04-24T07:01:37.314Z,16.90
2024-04-24T07:03:09.107Z,17.12
2024-04-24T07:04:41.651Z,17.31
2024-04-24T07:06:13.453Z,17.50
2024-04-24T07:07:45.101Z,17.67
2024-04-24T07:09:16.742Z,17.87
2024-04-24T07:10:48.552Z,18.08
2024-04-24T07:12:20.795Z,18.26
2024-04-24T07:13:53.142Z,18.42
2024-04-24T07:15:24.936Z,18.46
2024-04-24T07:16:56.633Z,18.45
2024-04-24T07:18:28.452Z,18.50
2024-04-24T07:20:00.382Z,18.57
2024-04-24T07:21:32.252Z,18.68
2024-04-24T07:23:07.300Z,18.73
2024-04-24T07:24:39.039Z,18.80
2024-04-24T07:26:10.795Z,18.87
2024-04-24T07:27:42.549Z,18.97
2024-04-24T07:29:14.275Z,19.02
2024-04-24T07:30:46.543Z,19.11
2024-04-24T07:32:18.226Z,19.29
2024-04-24T07:33:49.986Z,19.44
2024-04-24T07:35:21.669Z,19.60
2024-04-24T07:36:53.860Z,19.61
2024-04-24T07:38:26.072Z,19.71
2024-04-24T07:39:57.726Z,19.81
2024-04-24T07:41:29.910Z,19.81
2024-04-24T07:43:01.876Z,19.88
2024-04-24T07:44:33.990Z,19.98
2024-04-24T07:46:06.478Z,20.02
2024-04-24T07:47:38.276Z,20.04
2024-04-24T07:49:10.204Z,20.03
2024-04-24T07:50:43.683Z,20.09
2024-04-24T07:52:15.352Z,20.10
2024-04-24T07:53:47.505Z,20.11
2024-04-24T07:55:19.684Z,20.20
2024-04-24T07:56:51.625Z,20.29
2024-04-24T07:58:23.946Z,20.49
2024-04-24T07:59:55.608Z,20.65
2024-04-24T08:01:27.367Z,20.80
2024-04-24T08:02:59.156Z,20.98
2024-04-24T08:04:30.832Z,21.08
2024-04-24T08:06:02.538Z,21.24
2024-04-24T08:07:36.294Z,21.33
2024-04-24T08:09:07.992Z,21.44
2024-04-24T08:10:39.884Z,21.55
2024-04-24T08:12:11.695Z,21.65
2024-04-24T08:13:43.759Z,21.67
2024-04-24T08:15:15.540Z,21.65
2024-04-24T08:16:47.256Z,21.61
2024-04-24T08:18:19.018Z,21.62
2024-04-24T08:19:50.824Z,21.68
2024-04-24T08:21:22.885Z,21.71
2024-04-24T08:22:54.606Z,21.80
2024-04-24T08:24:26.311Z,21.95
2024-04-24T08:25:58.103Z,22.12
2024-04-24T08:27:30.024Z,22.24
2024-04-24T08:29:02.354Z,22.30
2024-04-24T08:30:34.094Z,22.26
2024-04-24T08:32:05.984Z,22.29
2024-04-24T08:33:37.905Z,22.25
2024-04-24T08:35:09.800Z,22.16
2024-04-24T08:36:43.595Z,22.14
2024-04-24T08:38:16.942Z,22.16
2024-04-24T08:39:49.308Z,22.19
2024-04-24T08:41:20.978Z,22.29
2024-04-24T08:42:52.691Z,22.34
2024-04-24T08:44:25.507Z,22.34
2024-04-24T08:45:59.527Z,22.33
2024-04-24T08:47:31.478Z,22.40
2024-04-24T08:49:05.339Z,22.41
2024-04-24T08:50:37.691Z,22.40
2024-04-24T08:52:09.729Z,22.41
2024-04-24T08:53:46.445Z,22.50
2024-04-24T08:55:18.639Z,22.52
2024-04-24T08:56:54.390Z,22.48
2024-04-24T08:58:26.204Z,22.35
2024-04-24T09:00:00.887Z,22.27
2024-04-24T09:01:33.831Z,22.22
2024-04-24T09:03:07.422Z,22.21
2024-04-24T09:04:41.014Z,22.07
2024-04-24T09:06:13.581Z,21.92
2024-04-24T09:07:45.242Z,21.85
2024-04-24T09:09:17.004Z,21.72
2024-04-24T09:10:50.095Z,21.74
2024-04-24T09:12:22.319Z,21.84
2024-04-24T09:13:54.844Z,21.62
2024-04-24T09:15:28.508Z,21.52
2024-04-24T09:17:01.480Z,21.56
2024-04-24T09:18:33.354Z,21.61
2024-04-24T09:20:05.224Z,21.41
2024-04-24T09:21:36.963Z,21.20
2024-04-24T09:23:15.604Z,21.19
2024-04-24T09:24:53.997Z,21.10
2024-04-24T09:26:27.737Z,21.27
2024-04-24T09:27:59.673Z,21.42
2024-04-24T09:29:31.798Z,21.64
2024-04-24T09:31:04.428Z,21.86
2024-04-24T09:32:36.304Z,21.99
2024-04-24T09:34:08.579Z,22.14
2024-04-24T09:35:40.307Z,22.18
2024-04-24T09:37:12.022Z,22.14
2024-04-24T09:38:43.723Z,22.11
2024-04-24T09:40:15.977Z,22.23
2024-04-24T09:41:48.475Z,22.28
2024-04-24T09:43:23.135Z,22.32
2024-04-24T09:44:56.176Z,22.25
2024-04-24T09:46:29.453Z,22.20
2024-04-24T09:48:01.616Z,22.02
2024-04-24T09:49:34.096Z,21.68
2024-04-24T09:51:11.100Z,21.49
2024-04-24T09:52:49.612Z,21.41
2024-04-24T09:54:22.764Z,21.28
2024-04-24T09:56:04.449Z,21.19
2024-04-24T09:57:37.426Z,21.17
2024-04-24T09:59:10.129Z,21.19
2024-04-24T10:00:41.881Z,21.33
2024-04-24T10:02:14.415Z,21.53
2024-04-24T10:03:46.981Z,21.72
2024-04-24T10:05:23.980Z,21.70
2024-04-24T10:06:59.474Z,21.83
2024-04-24T10:08:34.476Z,21.88
2024-04-24T10:10:06.900Z,21.64
2024-04-24T10:11:59.440Z,21.68
2024-04-24T10:13:31.727Z,21.44
2024-04-24T10:15:08.574Z,21.23
2024-04-24T10:16:40.304Z,21.23
2024-04-24T10:18:12.198Z,21.16
2024-04-24T10:19:44.051Z,21.10
2024-04-24T10:21:15.902Z,21.03
2024-04-24T10:22:47.708Z,21.09
2024-04-24T10:24:19.918Z,21.24
2024-04-24T10:25:53.395Z,21.32
2024-04-24T10:27:25.878Z,21.38
2024-04-24T10:28:57.721Z,21.50
2024-04-24T10:30:29.903Z,21.58
2024-04-24T10:32:02.349Z,21.65
2024-04-24T10:33:35.316Z,21.71
2024-04-24T10:35:07.539Z,21.78
2024-04-24T10:36:39.822Z,21.88
2024-04-24T10:38:13.857Z,22.01
2024-04-24T10:39:45.817Z,22.17
2024-04-24T10:41:17.816Z,22.28
2024-04-24T10:42:50.227Z,22.28
2024-04-24T10:44:22.304Z,22.22
2024-04-24T10:45:54.650Z,22.09
2024-04-24T10:47:27.188Z,22.11
2024-04-24T10:49:00.516Z,22.17
2024-04-24T10:50:35.641Z,22.33
2024-04-24T10:52:07.846Z,22.35
2024-04-24T10:53:52.447Z,22.47
2024-04-24T10:55:29.679Z,22.55
2024-04-24T10:57:03.307Z,22.56
2024-04-24T10:58:34.959Z,22.65
2024-04-24T11:00:22.318Z,22.79
2024-04-24T11:01:54.938Z,23.02
2024-04-24T11:03:26.918Z,23.16
2024-04-24T11:04:58.768Z,23.20
2024-04-24T11:06:30.811Z,23.18
2024-04-24T11:08:03.317Z,23.27
2024-04-24T11:09:35.056Z,23.39
2024-04-24T11:11:07.092Z,23.47
2024-04-24T11:12:42.203Z,23.50
2024-04-24T11:14:15.450Z,23.58
2024-04-24T11:15:54.714Z,23.65
2024-04-24T11:17:33.325Z,23.76
2024-04-24T11:19:05.028Z,23.79
2024-04-24T11:20:39.279Z,23.68
2024-04-24T11:22:11.061Z,23.60
2024-04-24T11:23:46.548Z,23.65
2024-04-24T11:25:21.591Z,23.46
2024-04-24T11:26:53.851Z,23.44
2024-04-24T11:28:27.470Z,23.45
2024-04-24T11:29:59.382Z,23.41
2024-04-24T11:31:31.707Z,23.47
2024-04-24T11:33:03.620Z,23.53
2024-04-24T11:34:36.989Z,23.64
2024-04-24T11:36:08.734Z,23.67
2024-04-24T11:37:40.672Z,23.52
2024-04-24T11:39:13.927Z,23.46
2024-04-24T11:40:45.852Z,23.34
2024-04-24T11:42:17.826Z,23.37
2024-04-24T11:43:49.999Z,23.36
2024-04-24T11:45:24.350Z,23.16
2024-04-24T11:46:58.119Z,23.17
2024-04-24T11:48:40.423Z,23.24
2024-04-24T11:50:16.243Z,23.22
2024-04-24T11:51:48.202Z,23.20
2024-04-24T11:53:20.121Z,23.19
2024-04-24T11:54:53.216Z,23.30
2024-04-24T11:56:25.552Z,23.47
2024-04-24T11:57:57.329Z,23.56
2024-04-24T11:59:31.042Z,23.46
2024-04-24T12:01:03.010Z,23.42
2024-04-24T12:02:35.885Z,23.34
2024-04-24T12:04:09.093Z,23.19
2024-04-24T12:05:41.133Z,23.21
2024-04-24T12:07:13.327Z,23.41
2024-04-24T12:08:45.709Z,23.53
2024-04-24T12:10:21.979Z,23.59
2024-04-24T12:11:53.663Z,23.63
2024-04-24T12:13:34.491Z,23.59
2024-04-24T12:15:06.353Z,23.57
2024-04-24T12:16:38.104Z,23.51
2024-04-24T12:18:09.960Z,23.44
2024-04-24T12:19:42.810Z,23.44
2024-04-24T12:21:15.744Z,23.53
2024-04-24T12:22:47.483Z,23.63
2024-04-24T12:24:19.233Z,23.61
2024-04-24T12:25:54.312Z,23.60
2024-04-24T12:27:25.970Z,23.49
2024-04-24T12:28:57.672Z,23.47
2024-04-24T12:30:29.328Z,23.42
2024-04-24T12:32:02.495Z,23.50
2024-04-24T12:33:39.264Z,23.72
2024-04-24T12:35:11.629Z,23.97
2024-04-24T12:36:43.629Z,24.19
2024-04-24T12:38:15.535Z,24.18
2024-04-24T12:39:47.953Z,24.01
2024-04-24T12:41:19.704Z,23.93
2024-04-24T12:42:52.261Z,23.78
2024-04-24T12:44:24.181Z,23.77
2024-04-24T12:45:56.543Z,23.70
2024-04-24T12:47:29.650Z,23.75
2024-04-24T12:49:04.828Z,23.77
2024-04-24T12:50:36.850Z,23.95
2024-04-24T12:52:08.900Z,23.94
2024-04-24T12:53:40.889Z,23.93
2024-04-24T12:55:13.127Z,23.95
2024-04-24T12:56:45.360Z,24.00
2024-04-24T12:58:17.833Z,23.98
2024-04-24T12:59:49.836Z,23.94
2024-04-24T13:01:22.268Z,23.69
2024-04-24T13:02:56.174Z,23.68
2024-04-24T13:04:28.299Z,23.72
2024-04-24T13:06:00.195Z,23.74
2024-04-24T13:07:32.201Z,23.81
2024-04-24T13:09:03.897Z,23.89
2024-04-24T13:10:35.944Z,23.85
2024-04-24T13:12:08.274Z,23.87
2024-04-24T13:13:39.930Z,23.82
2024-04-24T13:15:11.639Z,23.78
2024-04-24T13:16:43.679Z,23.56
2024-04-24T13:18:19.600Z,23.55
2024-04-24T13:19:53.145Z,23.47
2024-04-24T13:21:24.843Z,23.51
2024-04-24T13:22:56.793Z,23.47
2024-04-24T13:24:28.579Z,23.27
2024-04-24T13:26:00.789Z,23.21
2024-04-24T13:27:32.820Z,23.26
2024-04-24T13:29:04.614Z,23.11
2024-04-24T13:30:36.457Z,23.03
2024-04-24T13:32:08.718Z,23.02
2024-04-24T13:33:40.594Z,23.07
2024-04-24T13:35:12.476Z,23.15
2024-04-24T13:36:44.196Z,23.25
2024-04-24T13:38:17.148Z,23.30
2024-04-24T13:39:49.164Z,23.30
2024-04-24T13:41:23.917Z,23.36
2024-04-24T13:42:56.023Z,23.34
2024-04-24T13:44:27.796Z,23.24
2024-04-24T13:45:59.541Z,23.08
2024-04-24T13:47:31.502Z,23.05
2024-04-24T13:49:03.598Z,23.01
2024-04-24T13:50:35.491Z,22.95
2024-04-24T13:52:07.431Z,22.97
2024-04-24T13:53:39.480Z,23.05
2024-04-24T13:55:11.397Z,23.07
2024-04-24T13:56:43.171Z,23.23
2024-04-24T13:58:15.309Z,23.33
2024-04-24T13:59:47.095Z,23.36
2024-04-24T14:01:19.492Z,23.39
2024-04-24T14:02:52.015Z,23.41
2024-04-24T14:04:24.080Z,23.47
2024-04-24T14:05:58.504Z,23.39
2024-04-24T14:07:30.170Z,23.27
2024-04-24T14:09:02.284Z,23.16
2024-04-24T14:10:34.038Z,23.06
2024-04-24T14:12:06.262Z,23.06
2024-04-24T14:13:38.643Z,23.01
2024-04-24T14:15:10.611Z,23.04
2024-04-24T14:16:42.474Z,23.13
2024-04-24T14:18:14.239Z,23.07
2024-04-24T14:19:46.626Z,23.04
2024-04-24T14:21:20.047Z,23.05
2024-04-24T14:22:51.670Z,23.00
2024-04-24T14:24:26.671Z,22.90
2024-04-24T14:25:59.071Z,22.94
2024-04-24T14:27:30.854Z,23.02
2024-04-24T14:29:02.827Z,23.01
2024-04-24T14:30:34.761Z,22.98
2024-04-24T14:32:07.182Z,23.03
2024-04-24T14:33:38.890Z,23.06
2024-04-24T14:35:10.760Z,23.08
2024-04-24T14:36:42.527Z,23.11
2024-04-24T14:38:14.370Z,23.05
2024-04-24T14:39:46.101Z,22.98
2024-04-24T14:41:18.889Z,22.88
2024-04-24T14:42:50.698Z,22.81
2024-04-24T14:44:22.577Z,22.85
2024-04-24T14:45:54.230Z,22.79
2024-04-24T14:47:26.390Z,22.75
2024-04-24T14:49:03.017Z,22.74
2024-04-24T14:50:35.866Z,22.70
2024-04-24T14:52:08.021Z,22.71
2024-04-24T14:53:39.750Z,22.75
2024-04-24T14:55:11.782Z,22.73
2024-04-24T14:56:44.846Z,22.76
2024-04-24T14:58:16.741Z,22.78
2024-04-24T14:59:48.932Z,22.79
2024-04-24T15:01:20.876Z,22.77
2024-04-24T15:02:53.178Z,22.78
2024-04-24T15:04:24.979Z,22.71
2024-04-24T15:06:00.901Z,22.64
2024-04-24T15:07:34.065Z,22.44
2024-04-24T15:09:05.927Z,22.32
2024-04-24T15:10:37.694Z,22.27
2024-04-24T15:12:09.583Z,22.26
2024-04-24T15:13:43.366Z,22.22
2024-04-24T15:15:15.474Z,22.09
2024-04-24T15:16:47.384Z,21.99
2024-04-24T15:18:19.749Z,21.99
2024-04-24T15:19:52.004Z,22.02
2024-04-24T15:21:25.099Z,22.16
2024-04-24T15:22:57.012Z,22.19
2024-04-24T15:24:28.798Z,22.18
2024-04-24T15:26:02.062Z,22.26
2024-04-24T15:27:33.830Z,22.32
2024-04-24T15:29:06.056Z,22.34
2024-04-24T15:30:37.873Z,22.32
2024-04-24T15:32:10.047Z,22.27
2024-04-24T15:33:43.649Z,22.19
2024-04-24T15:35:16.144Z,22.21
2024-04-24T15:36:47.908Z,22.19
2024-04-24T15:38:19.580Z,22.18
2024-04-24T15:39:51.398Z,22.28
2024-04-24T15:41:23.367Z,22.33
2024-04-24T15:42:55.149Z,22.26
2024-04-24T15:44:27.048Z,22.22
2024-04-24T15:45:59.220Z,22.23
2024-04-24T15:47:31.728Z,22.18
2024-04-24T15:49:03.722Z,22.11
2024-04-24T15:50:35.986Z,22.00
2024-04-24T15:52:08.112Z,21.88
2024-04-24T15:53:40.429Z,21.75
2024-04-24T15:55:13.161Z,21.71
2024-04-24T15:56:45.293Z,21.69
2024-04-24T15:58:17.051Z,21.73
2024-04-24T15:59:48.719Z,21.78
2024-04-24T16:01:20.431Z,21.76
2024-04-24T16:02:52.781Z,21.75
2024-04-24T16:04:24.869Z,21.77
2024-04-24T16:05:56.991Z,21.76
2024-04-24T16:07:29.351Z,21.61
2024-04-24T16:09:01.178Z,21.50
2024-04-24T16:10:33.237Z,21.45
2024-04-24T16:12:04.942Z,21.41
2024-04-24T16:13:36.695Z,21.37
2024-04-24T16:15:10.701Z,21.34
2024-04-24T16:16:42.463Z,21.29
2024-04-24T16:18:14.470Z,21.26
2024-04-24T16:19:46.272Z,21.24
2024-04-24T16:21:17.975Z,21.21
2024-04-24T16:22:50.304Z,21.16
2024-04-24T16:24:22.005Z,21.10
2024-04-24T16:25:53.742Z,21.00
2024-04-24T16:27:25.437Z,20.95
2024-04-24T16:28:57.143Z,20.85
2024-04-24T16:30:29.435Z,20.76
2024-04-24T16:32:01.376Z,20.68
2024-04-24T16:33:33.257Z,20.59
2024-04-24T16:35:05.351Z,20.50
2024-04-24T16:36:37.054Z,20.43
2024-04-24T16:38:08.753Z,20.37
2024-04-24T16:39:41.888Z,20.31
2024-04-24T16:41:21.059Z,20.18
2024-04-24T16:42:52.890Z,20.06
2024-04-24T16:44:24.721Z,19.98
2024-04-24T16:45:56.690Z,19.96
2024-04-24T16:47:28.688Z,19.92
2024-04-24T16:49:00.413Z,19.92
2024-04-24T16:50:32.390Z,19.90
2024-04-24T16:52:09.162Z,19.83
2024-04-24T16:53:40.846Z,19.80
2024-04-24T16:55:13.417Z,19.80
2024-04-24T16:56:45.352Z,19.77
2024-04-24T16:58:17.066Z,19.71
2024-04-24T16:59:48.810Z,19.65
2024-04-24T17:01:20.557Z,19.59
2024-04-24T17:02:52.250Z,19.47
2024-04-24T17:04:26.044Z,19.34
2024-04-24T17:05:57.812Z,19.22
2024-04-24T17:07:29.484Z,19.10
2024-04-24T17:09:01.301Z,19.03
2024-04-24T17:10:33.327Z,18.98
2024-04-24T17:12:05.296Z,18.92
2024-04-24T17:13:37.037Z,18.83
2024-04-24T17:15:08.758Z,18.79
2024-04-24T17:16:40.486Z,18.76
2024-04-24T17:18:12.513Z,18.75
2024-04-24T17:19:44.341Z,18.76
2024-04-24T17:21:17.515Z,18.76
2024-04-24T17:22:51.399Z,18.76
2024-04-24T17:24:23.356Z,18.76
2024-04-24T17:25:55.233Z,18.76
2024-04-24T17:27:26.882Z,18.75
2024-04-24T17:28:58.695Z,18.74
2024-04-24T17:30:30.496Z,18.73
2024-04-24T17:32:02.244Z,18.75
2024-04-24T17:33:33.896Z,18.75
2024-04-24T17:35:05.840Z,18.77
2024-04-24T17:36:37.556Z,18.78
2024-04-24T17:38:09.299Z,18.74
2024-04-24T17:39:41.011Z,18.70
2024-04-24T17:41:12.790Z,18.67
2024-04-24T17:42:44.517Z,18.64
2024-04-24T17:44:17.059Z,18.62
2024-04-24T17:45:48.794Z,18.61
2024-04-24T17:47:23.886Z,18.60
2024-04-24T17:48:55.693Z,18.51
2024-04-24T17:50:27.496Z,18.46
2024-04-24T17:51:59.302Z,18.38
2024-04-24T17:53:31.202Z,18.33
2024-04-24T17:55:03.315Z,18.31
2024-04-24T17:56:36.505Z,18.27
2024-04-24T17:58:08.231Z,18.17
2024-04-24T17:59:41.302Z,18.08
2024-04-24T18:01:14.334Z,17.98
2024-04-24T18:02:48.586Z,17.93
2024-04-24T18:04:20.278Z,17.87
2024-04-24T18:05:52.080Z,17.84
2024-04-24T18:07:23.795Z,17.81
2024-04-24T18:08:55.465Z,17.74
2024-04-24T18:10:27.064Z,17.77
2024-04-24T18:11:58.960Z,17.79
2024-04-24T18:13:31.073Z,17.75
2024-04-24T18:15:02.792Z,17.75
2024-04-24T18:16:34.529Z,17.72
2024-04-24T18:18:06.591Z,17.64
2024-04-24T18:19:38.362Z,17.56
2024-04-24T18:21:10.072Z,17.49
2024-04-24T18:22:42.601Z,17.43
2024-04-24T18:24:14.517Z,17.38
2024-04-24T18:25:46.954Z,17.36
2024-04-24T18:27:18.752Z,17.37
2024-04-24T18:28:50.618Z,17.36
2024-04-24T18:30:22.469Z,17.36
2024-04-24T18:31:54.588Z,17.37
2024-04-24T18:33:26.735Z,17.37
2024-04-24T18:34:58.542Z,17.37
2024-04-24T18:36:30.777Z,17.35
2024-04-24T18:38:02.559Z,17.29
2024-04-24T18:39:34.525Z,17.23
2024-04-24T18:41:07.156Z,17.21
2024-04-24T18:42:39.217Z,17.16
2024-04-24T18:44:11.095Z,17.08
2024-04-24T18:45:43.632Z,17.01
2024-04-24T18:47:15.515Z,16.98
2024-04-24T18:48:47.411Z,16.92
2024-04-24T18:50:19.986Z,16.91
2024-04-24T18:51:51.933Z,16.87
2024-04-24T18:53:23.643Z,16.87
2024-04-24T18:54:55.402Z,16.82
2024-04-24T18:56:27.184Z,16.77
2024-04-24T18:57:58.963Z,16.72
2024-04-24T18:59:30.887Z,16.70
2024-04-24T19:01:02.944Z,16.66
2024-04-24T19:02:35.166Z,16.63
2024-04-24T19:04:13.344Z,16.62
2024-04-24T19:05:45.670Z,16.60
2024-04-24T19:07:17.744Z,16.59
2024-04-24T19:08:50.833Z,16.56
2024-04-24T19:10:22.724Z,16.62
2024-04-24T19:11:59.432Z,16.66
2024-04-24T19:13:31.535Z,16.71
2024-04-24T19:15:06.835Z,16.74
2024-04-24T19:16:38.559Z,16.76
2024-04-24T19:18:10.811Z,16.73
2024-04-24T19:19:43.989Z,16.70
2024-04-24T19:21:15.809Z,16.66
2024-04-24T19:22:47.956Z,16.65
2024-04-24T19:24:19.634Z,16.66
2024-04-24T19:25:54.082Z,16.70
2024-04-24T19:27:34.902Z,16.71
2024-04-24T19:29:12.511Z,16.75
2024-04-24T19:30:44.202Z,16.75
2024-04-24T19:32:15.975Z,16.74
2024-04-24T19:33:49.261Z,16.67
2024-04-24T19:35:21.714Z,16.63
2024-04-24T19:36:54.176Z,16.56
2024-04-24T19:38:25.862Z,16.53
2024-04-24T19:39:58.059Z,16.48
2024-04-24T19:41:31.771Z,16.46
2024-04-24T19:43:03.587Z,16.45
2024-04-24T19:44:35.329Z,16.42
2024-04-24T19:46:09.794Z,16.37
2024-04-24T19:47:43.491Z,16.26
2024-04-24T19:49:15.295Z,16.17
2024-04-24T19:50:47.864Z,16.12
2024-04-24T19:52:19.592Z,16.09